createdAt,value
2023-04-28T00:02:09.154Z,29.31
2023-04-28T00:06:11.378Z,30.92
2023-04-28T00:10:12.783Z,30.56
2023-04-28T00:14:14.325Z,29.86
2023-04-28T00:18:16.012Z,29.61
2023-04-28T00:22:17.457Z,30.39
2023-04-28T00:26:18.888Z,29.86
2023-04-28T00:30:20.399Z,30.62
2023-04-28T00:34:21.697Z,30.65
2023-04-28T00:38:25.406Z,29.91
2023-04-28T00:42:26.880Z,29.86
2023-04-28T00:46:31.990Z,31.20
2023-04-28T00:50:33.548Z,30.25
2023-04-28T00:54:35.004Z,30.19
2023-04-28T00:58:37.370Z,29.85
2023-04-28T01:02:39.192Z,29.90
2023-04-28T01:06:42.337Z,31.09
2023-04-28T01:10:44.585Z,32.61
2023-04-28T01:14:46.316Z,33.58
2023-04-28T01:18:48.272Z,34.62
2023-04-28T01:22:49.598Z,34.88
2023-04-28T01:26:51.091Z,35.86
2023-04-28T01:30:52.461Z,36.88
2023-04-28T01:34:53.848Z,38.56
2023-04-28T01:38:55.642Z,37.41
2023-04-28T01:42:56.943Z,37.76
2023-04-28T01:46:58.347Z,38.59
2023-04-28T01:50:59.711Z,37.86
2023-04-28T01:55:01.020Z,37.79
2023-04-28T01:59:02.416Z,37.36
2023-04-28T02:03:03.932Z,38.37
2023-04-28T02:07:06.430Z,37.61
2023-04-28T02:11:07.790Z,38.56
2023-04-28T02:15:09.558Z,38.21
2023-04-28T02:19:10.994Z,38.86
2023-04-28T02:23:12.429Z,37.69
2023-04-28T02:27:14.078Z,37.91
2023-04-28T02:31:15.845Z,37.93
2023-04-28T02:35:17.308Z,39.22
2023-04-28T02:39:18.853Z,38.52
2023-04-28T02:43:20.178Z,39.61
2023-04-28T02:47:21.567Z,39.81
2023-04-28T02:51:22.835Z,39.65
2023-04-28T02:55:24.462Z,38.64
2023-04-28T02:59:27.012Z,38.53
2023-04-28T03:03:28.548Z,38.99
2023-04-28T03:07:30.098Z,39.01
2023-04-28T03:11:31.393Z,38.79
2023-04-28T03:15:32.918Z,40.34
2023-04-28T03:19:34.306Z,40.06
2023-04-28T03:23:35.674Z,38.59
2023-04-28T03:27:37.049Z,38.66
2023-04-28T03:31:38.373Z,38.40
2023-04-28T03:35:39.748Z,38.44
2023-04-28T03:39:41.133Z,40.24
2023-04-28T03:43:42.440Z,41.46
2023-04-28T03:47:43.735Z,41.57
2023-04-28T03:51:45.393Z,41.39
2023-04-28T03:55:46.866Z,42.53
2023-04-28T03:59:48.236Z,42.65
2023-04-28T04:03:49.666Z,42.72
2023-04-28T04:07:51.079Z,43.17
2023-04-28T04:11:52.460Z,43.50
2023-04-28T04:15:54.008Z,43.67
2023-04-28T04:19:55.565Z,42.61
2023-04-28T04:23:56.838Z,42.71
2023-04-28T04:27:59.077Z,42.55
2023-04-28T04:32:00.427Z,41.14
2023-04-28T04:36:01.924Z,41.57
2023-04-28T04:40:03.626Z,41.10
2023-04-28T04:44:05.799Z,41.10
2023-04-28T04:48:07.354Z,40.17
2023-04-28T04:52:08.740Z,40.95
2023-04-28T04:56:10.057Z,42.07
2023-04-28T05:00:12.089Z,41.61
2023-04-28T05:04:13.632Z,40.78
2023-04-28T05:08:15.141Z,41.09
2023-04-28T05:12:17.012Z,42.08
2023-04-28T05:16:18.527Z,40.58
2023-04-28T05:20:20.106Z,41.07
2023-04-28T05:24:24.661Z,40.67
2023-04-28T05:28:26.050Z,41.21
2023-04-28T05:32:27.349Z,41.31
2023-04-28T05:36:28.785Z,41.45
2023-04-28T05:40:30.109Z,41.72
2023-04-28T05:44:31.701Z,43.02
2023-04-28T05:48:33.045Z,42.91
2023-04-28T05:52:34.663Z,43.70
2023-04-28T05:56:36.159Z,43.04
2023-04-28T06:00:37.486Z,44.58
2023-04-28T06:04:39.489Z,42.93
2023-04-28T06:08:41.058Z,42.31
2023-04-28T06:12:42.514Z,42.16
2023-04-28T06:16:44.008Z,42.59
2023-04-28T06:20:45.358Z,42.25
2023-04-28T06:24:47.708Z,42.55
2023-04-28T06:28:49.265Z,42.11
2023-04-28T06:32:50.796Z,42.67
2023-04-28T06:36:52.213Z,42.09
2023-04-28T06:40:53.610Z,42.83
2023-04-28T06:44:54.955Z,42.04
2023-04-28T06:48:56.307Z,43.58
2023-04-28T06:52:58.720Z,41.87
2023-04-28T06:57:00.119Z,41.96
2023-04-28T07:01:03.599Z,40.80
2023-04-28T07:05:05.342Z,41.49
2023-04-28T07:09:06.728Z,40.80
2023-04-28T07:13:08.144Z,41.63
2023-04-28T07:17:09.541Z,41.14
2023-04-28T07:21:10.960Z,41.08
2023-04-28T07:25:12.342Z,41.83
2023-04-28T07:29:14.883Z,42.29
2023-04-28T07:33:16.248Z,42.48
2023-04-28T07:37:18.496Z,40.13
2023-04-28T07:41:19.873Z,40.60
2023-04-28T07:45:21.443Z,39.18
2023-04-28T07:49:23.044Z,39.26
2023-04-28T07:53:24.406Z,39.06
2023-04-28T07:57:26.434Z,39.30
2023-04-28T08:01:27.834Z,38.70
2023-04-28T08:05:29.461Z,38.03
2023-04-28T08:09:31.098Z,37.52
2023-04-28T08:13:33.117Z,36.61
2023-04-28T08:17:34.553Z,33.27
2023-04-28T08:21:36.267Z,34.45
2023-04-28T08:25:37.607Z,36.56
2023-04-28T08:29:40.202Z,36.60
2023-04-28T08:33:44.347Z,37.96
2023-04-28T08:37:46.325Z,36.52
2023-04-28T08:41:47.715Z,36.12
2023-04-28T08:45:49.256Z,35.72
2023-04-28T08:49:52.476Z,35.54
2023-04-28T08:58:01.022Z,37.32
2023-04-28T09:02:02.536Z,38.26
2023-04-28T09:06:04.056Z,39.89
2023-04-28T09:10:19.494Z,39.84
2023-04-28T09:14:22.579Z,40.89
2023-04-28T09:18:23.915Z,40.73
2023-04-28T09:22:31.014Z,42.78
2023-04-28T09:26:54.821Z,43.33
2023-04-28T09:30:57.329Z,44.07
2023-04-28T09:34:59.473Z,44.36
2023-04-28T09:39:01.650Z,44.29
2023-04-28T09:43:11.944Z,44.19
2023-04-28T09:47:22.627Z,45.24
2023-04-28T09:51:25.414Z,45.04
2023-04-28T09:55:28.262Z,44.84
2023-04-28T09:59:30.124Z,44.71
2023-04-28T10:03:31.822Z,43.66
2023-04-28T10:07:35.653Z,44.71
2023-04-28T10:11:37.163Z,46.56
2023-04-28T10:15:39.170Z,45.73
2023-04-28T10:19:42.747Z,44.66
2023-04-28T10:24:08.345Z,44.97
2023-04-28T10:28:10.409Z,44.10
2023-04-28T10:32:28.951Z,43.73
2023-04-28T10:36:54.854Z,44.84
2023-04-28T10:41:02.488Z,44.29
2023-04-28T10:45:04.386Z,43.57
2023-04-28T10:49:06.154Z,42.68
2023-04-28T10:53:07.505Z,42.31
2023-04-28T10:57:16.494Z,41.45
2023-04-28T11:01:28.172Z,42.13
2023-04-28T11:05:31.856Z,41.49
2023-04-28T11:09:33.131Z,41.22
2023-04-28T11:13:34.692Z,40.52
2023-04-28T11:17:42.501Z,41.39
2023-04-28T11:21:44.044Z,38.91
2023-04-28T11:25:55.728Z,39.80
2023-04-28T11:29:57.331Z,39.49
2023-04-28T11:34:12.059Z,39.33
2023-04-28T11:38:13.395Z,38.95
2023-04-28T11:42:15.002Z,38.70
2023-04-28T11:46:21.686Z,38.53
2023-04-28T11:50:36.565Z,40.10
2023-04-28T11:54:38.410Z,39.60
2023-04-28T11:58:40.228Z,37.28
2023-04-28T12:02:42.059Z,38.94
2023-04-28T12:06:43.623Z,36.81
2023-04-28T12:11:12.833Z,36.58
2023-04-28T12:15:14.375Z,37.03
2023-04-28T12:19:16.359Z,36.34
2023-04-28T12:23:36.004Z,36.10
2023-04-28T12:27:40.196Z,36.22
2023-04-28T12:31:52.981Z,36.22
2023-04-28T12:35:56.544Z,37.35
2023-04-28T12:39:58.302Z,36.36
2023-04-28T12:43:59.704Z,36.13
2023-04-28T12:48:01.564Z,35.56
2023-04-28T12:52:04.266Z,36.14
2023-04-28T12:56:06.117Z,35.49
2023-04-28T13:00:08.699Z,37.04
2023-04-28T13:04:10.341Z,35.06
2023-04-28T13:08:12.755Z,38.74
2023-04-28T13:12:14.690Z,40.49
2023-04-28T13:16:16.132Z,36.99
2023-04-28T13:20:18.611Z,38.09
2023-04-28T13:24:20.189Z,39.10
2023-04-28T13:28:21.609Z,38.79
2023-04-28T13:32:22.970Z,36.54
2023-04-28T13:36:24.439Z,36.75
2023-04-28T13:40:25.892Z,36.33
2023-04-28T13:44:27.161Z,39.20
2023-04-28T13:48:29.090Z,38.23
2023-04-28T13:52:30.822Z,37.77
2023-04-28T13:56:33.416Z,37.66
2023-04-28T14:00:34.911Z,38.14
2023-04-28T14:04:36.790Z,36.44
2023-04-28T14:08:38.390Z,36.46
2023-04-28T14:12:39.773Z,35.53
2023-04-28T14:16:41.176Z,35.35
2023-04-28T14:20:42.487Z,34.81
2023-04-28T14:24:43.924Z,33.66
2023-04-28T14:28:45.659Z,34.00
2023-04-28T14:32:47.546Z,33.28
2023-04-28T14:36:48.934Z,33.20
2023-04-28T14:40:50.452Z,31.88
2023-04-28T14:44:53.974Z,31.75
2023-04-28T14:48:56.856Z,32.43
2023-04-28T14:53:05.127Z,32.80
2023-04-28T14:57:07.214Z,33.30
2023-04-28T15:01:09.180Z,33.31
2023-04-28T15:05:11.644Z,33.53
2023-04-28T15:09:13.503Z,32.97
2023-04-28T15:13:14.853Z,33.96
2023-04-28T15:17:16.750Z,33.88
2023-04-28T15:21:18.109Z,32.79
2023-04-28T15:25:19.533Z,33.35
2023-04-28T15:29:20.994Z,33.23
2023-04-28T15:33:22.682Z,33.84
2023-04-28T15:37:47.609Z,35.12
2023-04-28T15:41:49.151Z,34.27
2023-04-28T15:45:51.518Z,35.28
2023-04-28T15:49:52.846Z,35.00
2023-04-28T15:53:55.651Z,35.51
2023-04-28T15:57:56.983Z,35.84
2023-04-28T16:01:58.326Z,36.22
2023-04-28T16:06:01.011Z,35.73
2023-04-28T16:10:02.355Z,35.22
2023-04-28T16:14:04.047Z,36.27
2023-04-28T16:18:05.507Z,37.08
2023-04-28T16:22:07.061Z,37.29
2023-04-28T16:26:08.578Z,37.45
2023-04-28T16:30:10.351Z,36.56
2023-04-28T16:34:12.290Z,37.06
2023-04-28T16:38:13.634Z,37.44
2023-04-28T16:42:15.030Z,36.44
2023-04-28T16:46:16.448Z,35.64
2023-04-28T16:50:18.010Z,36.64
2023-04-28T16:54:19.372Z,35.69
2023-04-28T16:58:20.644Z,35.47
2023-04-28T17:02:22.591Z,34.96
2023-04-28T17:06:24.424Z,35.15
2023-04-28T17:10:26.014Z,35.62
2023-04-28T17:14:27.433Z,35.51
2023-04-28T17:18:28.778Z,35.31
2023-04-28T17:22:31.314Z,35.95
2023-04-28T17:26:32.702Z,35.53
2023-04-28T17:30:38.229Z,36.52
2023-04-28T17:34:39.910Z,35.83
2023-04-28T17:38:41.319Z,35.62
2023-04-28T17:42:43.075Z,35.80
2023-04-28T17:46:44.536Z,36.52
2023-04-28T17:50:46.423Z,36.56
2023-04-28T17:54:48.330Z,37.03
2023-04-28T17:58:50.327Z,36.30
2023-04-28T18:02:52.741Z,36.45
2023-04-28T18:06:54.167Z,36.38
2023-04-28T18:10:56.927Z,36.52
2023-04-28T18:14:58.255Z,36.31
2023-04-28T18:18:59.651Z,36.74
2023-04-28T18:23:01.971Z,36.32
2023-04-28T18:27:03.956Z,36.93
2023-04-28T18:31:06.141Z,37.23
2023-04-28T18:35:07.930Z,37.17
2023-04-28T18:39:10.012Z,37.16
2023-04-28T18:43:11.386Z,37.44
2023-04-28T18:47:12.809Z,36.69
2023-04-28T18:51:14.309Z,37.80
2023-04-28T18:55:16.068Z,37.64
2023-04-28T18:59:17.446Z,37.90
2023-04-28T19:03:18.858Z,37.75
2023-04-28T19:07:20.409Z,37.89
2023-04-28T19:11:23.322Z,38.62
2023-04-28T19:15:25.642Z,38.35
2023-04-28T19:19:26.988Z,39.08
2023-04-28T19:23:30.241Z,38.26
2023-04-28T19:27:32.940Z,37.90
2023-04-28T19:31:34.805Z,38.60
2023-04-28T19:35:36.084Z,38.51
2023-04-28T19:39:37.370Z,38.36
2023-04-28T19:43:38.774Z,38.87
2023-04-28T19:47:40.227Z,38.94
2023-04-28T19:51:41.571Z,38.55
2023-04-28T19:55:42.856Z,38.00
2023-04-28T19:59:45.467Z,39.15
2023-04-28T20:03:47.146Z,38.61
2023-04-28T20:07:50.228Z,38.46
2023-04-28T20:11:51.538Z,38.46
2023-04-28T20:15:52.876Z,38.62
2023-04-28T20:19:54.207Z,38.45
2023-04-28T20:23:55.492Z,38.18
2023-04-28T20:27:56.994Z,38.26
2023-04-28T20:31:58.908Z,37.77
2023-04-28T20:36:00.247Z,37.99
2023-04-28T20:40:01.550Z,38.91
2023-04-28T20:44:03.161Z,38.90
2023-04-28T20:48:04.856Z,38.59
2023-04-28T20:52:06.474Z,38.79
2023-04-28T20:56:08.416Z,40.37
2023-04-28T21:00:11.336Z,39.78
2023-04-28T21:04:12.844Z,39.35
2023-04-28T21:08:14.335Z,40.06
2023-04-28T21:12:15.646Z,40.12
2023-04-28T21:16:20.990Z,40.23
2023-04-28T21:20:23.340Z,40.07
2023-04-28T21:24:24.740Z,40.40
2023-04-28T21:28:26.056Z,40.72
2023-04-28T21:32:27.634Z,40.50
2023-04-28T21:36:30.047Z,41.61
2023-04-28T21:40:31.377Z,41.05
2023-04-28T21:44:32.761Z,43.00
2023-04-28T21:48:34.210Z,44.06
2023-04-28T21:52:35.615Z,44.63
2023-04-28T21:56:36.973Z,44.66
2023-04-28T22:00:46.991Z,44.86
2023-04-28T22:04:49.236Z,45.20
2023-04-28T22:08:50.674Z,45.53
2023-04-28T22:12:52.082Z,45.58
2023-04-28T22:16:53.569Z,45.79
2023-04-28T22:20:54.888Z,45.25
2023-04-28T22:24:56.497Z,45.54
2023-04-28T22:28:57.846Z,45.29
2023-04-28T22:32:59.276Z,45.20
2023-04-28T22:37:00.624Z,45.33
2023-04-28T22:41:02.581Z,45.37
2023-04-28T22:45:04.490Z,44.72
2023-04-28T22:49:05.901Z,46.12
2023-04-28T22:53:07.353Z,45.57
2023-04-28T22:57:08.943Z,45.32
2023-04-28T23:01:10.359Z,45.77
2023-04-28T23:05:11.776Z,46.92
2023-04-28T23:09:13.215Z,45.77
2023-04-28T23:13:15.185Z,46.07
2023-04-28T23:17:16.528Z,46.92
2023-04-28T23:21:17.864Z,47.34
2023-04-28T23:25:19.163Z,48.21
2023-04-28T23:29:20.591Z,47.01
2023-04-28T23:33:21.923Z,47.79
2023-04-28T23:37:23.252Z,47.09
2023-04-28T23:41:24.549Z,46.05
2023-04-28T23:45:25.885Z,45.58
2023-04-28T23:49:27.305Z,45.48
2023-04-28T23:53:28.620Z,46.06
2023-04-28T23:57:30.002Z,45.25
